Airfield :
LOGIN :

Register | Disclaimer

   EN    FR    IT 

 










Legend :    VFR   Marginal VFR   IFR   Intensive IFR   Very Intensive IFR
Visi :
Ceiling :
>= 8 km
>= 3000ft
5 to 8 km
1000 to 3000 ft
1500m to 5 km
500 to 1000 ft
800 to 1500m
200 to 500 ft
< 800m
< 200 ft
Symbols :   Thunderstorms  Fog  Heavy snow  Heavy precipitations  Wind > 20 kt
SIGMETs :     Misc.  Thunderstorms  Icing  Turbulence  Mountain Waves  Volcanic Ashes






- Airport Elevation : 1213 ft
- IATA code : SCQ


LEST - Santiago de Compostela

CURRENT METAR :
  • 250800Z 00000KT CAVOK M02/M03 Q1030 NOSIG

EXPIRED METARs :
  • 250730Z 00000KT CAVOK M01/M02 Q1030 NOSIG
  • 250700Z 09005KT CAVOK 02/01 Q1029 NOSIG
  • 250630Z 10004KT 060V160 CAVOK 01/01 Q1029 NOSIG
  • 250600Z 00000KT CAVOK M02/M03 Q1029 NOSIG
  • 250530Z VRB02KT CAVOK M02/M03 Q1029 NOSIG

TAF TAF LEST
Valid from the 25 at 06:00 until the 26 at 06:00 UTC


250500Z 2506/2606 VRB05KT 9999 FEW030 TX13/2515Z TN00/2507Z
PROB40
TEMPO 2506/2509 3000 BR BCFG BKN010
PROB30
TEMPO 2506/2509 0800 BCFG BKN002
PROB30
TEMPO 2506/2509 0350 BCFG BKN001
PROB40
TEMPO 2600/2606 3000 BR BCFG BKN005 BKN010



MET'MAP, your aeronautical weather chart ! - Copyright ORBIFLY December 2007 - Disclaimer

ORBIFLY MET'MAP TEAM :

Programming & Development : Alexandra Zaïnal
Original concept : Baudouin d'Aumeries
Technical & hardware support : Manuel Goepfert
Assistance : Marc-Olivier Méhu

Contact : metmap@orbifly.com




SOURCES & CREDITS :

   NOAA